createdAt,value
2022-12-11T00:00:59.481Z,14.27
2022-12-11T00:04:03.306Z,15.16
2022-12-11T00:07:07.355Z,16.08
2022-12-11T00:10:11.352Z,16.64
2022-12-11T00:13:15.293Z,16.88
2022-12-11T00:16:23.754Z,18.03
2022-12-11T00:19:30.518Z,18.81
2022-12-11T00:22:34.431Z,18.78
2022-12-11T00:25:38.624Z,18.60
2022-12-11T00:28:42.694Z,19.03
2022-12-11T00:31:46.695Z,19.09
2022-12-11T00:34:50.678Z,19.00
2022-12-11T00:37:54.724Z,18.24
2022-12-11T00:40:58.664Z,17.50
2022-12-11T00:44:02.648Z,18.12
2022-12-11T00:47:06.478Z,18.07
2022-12-11T00:50:10.435Z,17.46
2022-12-11T00:53:14.427Z,16.48
2022-12-11T00:56:18.414Z,16.71
2022-12-11T00:59:22.423Z,15.93
2022-12-11T01:02:26.242Z,15.35
2022-12-11T01:05:30.494Z,15.69
2022-12-11T01:08:38.536Z,15.33
2022-12-11T01:11:42.774Z,15.39
2022-12-11T01:14:47.089Z,14.64
2022-12-11T01:17:52.245Z,15.12
2022-12-11T01:20:56.087Z,15.79
2022-12-11T01:24:00.185Z,15.70
2022-12-11T01:27:04.181Z,14.56
2022-12-11T01:30:08.018Z,14.79
2022-12-11T01:33:11.923Z,14.67
2022-12-11T01:36:15.723Z,14.66
2022-12-11T01:39:19.762Z,14.53
2022-12-11T01:42:23.650Z,14.85
2022-12-11T01:45:27.654Z,14.65
2022-12-11T01:48:31.308Z,15.10
2022-12-11T01:51:35.431Z,14.96
2022-12-11T01:54:39.272Z,15.15
2022-12-11T01:57:43.275Z,14.94
2022-12-11T02:00:47.356Z,15.76
2022-12-11T02:03:51.339Z,15.30
2022-12-11T02:06:55.244Z,14.99
2022-12-11T02:09:59.259Z,15.79
2022-12-11T02:13:03.195Z,14.89
2022-12-11T02:16:07.164Z,14.83
2022-12-11T02:19:10.923Z,15.28
2022-12-11T02:22:14.869Z,15.29
2022-12-11T02:25:18.748Z,15.18
2022-12-11T02:28:22.392Z,15.49
2022-12-11T02:31:26.611Z,15.55
2022-12-11T02:34:31.307Z,15.06
2022-12-11T02:37:35.186Z,16.14
2022-12-11T02:40:39.277Z,15.80
2022-12-11T02:43:42.883Z,16.99
2022-12-11T02:46:46.820Z,17.20
2022-12-11T02:49:50.822Z,17.20
2022-12-11T02:52:54.894Z,17.53
2022-12-11T02:55:58.953Z,17.23
2022-12-11T02:59:03.038Z,17.06
2022-12-11T03:02:06.825Z,17.02
2022-12-11T03:05:10.967Z,16.80
2022-12-11T03:08:15.421Z,16.94
2022-12-11T03:11:19.137Z,16.45
2022-12-11T03:14:23.005Z,15.73
2022-12-11T03:17:27.069Z,16.24
2022-12-11T03:20:31.120Z,16.12
2022-12-11T03:23:35.180Z,16.28
2022-12-11T03:26:39.173Z,15.90
2022-12-11T03:29:43.211Z,16.13
2022-12-11T03:32:47.384Z,15.70
2022-12-11T03:35:51.420Z,15.70
2022-12-11T03:38:55.304Z,16.77
2022-12-11T03:41:59.309Z,16.90
2022-12-11T03:45:03.354Z,17.33
2022-12-11T03:48:07.331Z,17.48
2022-12-11T03:51:11.293Z,17.56
2022-12-11T03:54:15.224Z,17.74
2022-12-11T03:57:19.239Z,17.93
2022-12-11T04:00:23.254Z,18.58
2022-12-11T04:03:27.204Z,18.10
2022-12-11T04:06:30.989Z,17.88
2022-12-11T04:09:34.843Z,18.44
2022-12-11T04:12:38.935Z,18.30
2022-12-11T04:15:42.841Z,18.68
2022-12-11T04:18:46.698Z,18.41
2022-12-11T04:21:50.539Z,17.59
2022-12-11T04:24:54.741Z,17.13
2022-12-11T04:27:58.965Z,17.03
2022-12-11T04:31:02.760Z,17.62
2022-12-11T04:34:07.569Z,18.60
2022-12-11T04:37:11.574Z,18.53
2022-12-11T04:40:15.572Z,19.12
2022-12-11T04:43:19.486Z,19.63
2022-12-11T04:46:23.264Z,19.44
2022-12-11T04:49:27.049Z,18.17
2022-12-11T04:52:30.907Z,18.24
2022-12-11T04:55:34.930Z,19.99
2022-12-11T04:58:38.981Z,19.64
2022-12-11T05:01:42.905Z,19.55
2022-12-11T05:04:46.809Z,20.18
2022-12-11T05:07:50.922Z,20.45
2022-12-11T05:10:54.903Z,20.41
2022-12-11T05:13:58.723Z,21.18
2022-12-11T05:17:02.669Z,21.10
2022-12-11T05:20:06.713Z,20.94
2022-12-11T05:23:10.651Z,20.11
2022-12-11T05:26:14.615Z,20.26
2022-12-11T05:29:18.583Z,20.06
2022-12-11T05:32:22.774Z,18.81
2022-12-11T05:35:26.861Z,18.77
2022-12-11T05:38:31.021Z,19.06
2022-12-11T05:41:35.013Z,19.86
2022-12-11T05:44:39.186Z,20.36
2022-12-11T05:47:42.963Z,20.84
2022-12-11T05:50:46.874Z,20.53
2022-12-11T05:53:50.884Z,20.96
2022-12-11T05:56:54.818Z,20.51
2022-12-11T05:59:58.928Z,20.82
2022-12-11T06:03:03.123Z,20.48
2022-12-11T06:06:06.846Z,20.59
2022-12-11T06:09:10.727Z,21.01
2022-12-11T06:12:14.844Z,20.99
2022-12-11T06:15:18.856Z,21.15
2022-12-11T06:18:22.807Z,21.52
2022-12-11T06:21:26.511Z,21.96
2022-12-11T06:24:30.545Z,21.15
2022-12-11T06:27:34.782Z,21.56
2022-12-11T06:30:39.668Z,20.27
2022-12-11T06:33:43.310Z,20.03
2022-12-11T06:36:47.253Z,19.30
2022-12-11T06:39:51.277Z,19.18
2022-12-11T06:42:55.387Z,19.78
2022-12-11T06:46:03.845Z,19.40
2022-12-11T06:49:08.431Z,19.08
2022-12-11T06:52:18.167Z,18.97
2022-12-11T06:55:22.720Z,19.05
2022-12-11T06:58:26.820Z,18.80
2022-12-11T07:01:30.737Z,19.10
2022-12-11T07:04:34.691Z,19.47
2022-12-11T07:07:38.661Z,17.78
2022-12-11T07:10:42.749Z,18.43
2022-12-11T07:13:46.535Z,19.42
2022-12-11T07:16:50.475Z,17.39
2022-12-11T07:19:54.560Z,17.16
2022-12-11T07:22:58.627Z,17.32
2022-12-11T07:26:02.664Z,17.79
2022-12-11T07:29:06.577Z,17.92
2022-12-11T07:32:10.679Z,17.58
2022-12-11T07:35:14.663Z,16.27
2022-12-11T07:38:18.696Z,17.20
2022-12-11T07:41:22.611Z,17.01
2022-12-11T07:44:26.719Z,17.91
2022-12-11T07:47:30.826Z,17.46
2022-12-11T07:50:39.630Z,17.65
2022-12-11T07:53:44.417Z,17.08
2022-12-11T07:56:53.204Z,15.57
2022-12-11T07:59:57.555Z,15.28
2022-12-11T08:03:01.530Z,14.95
2022-12-11T08:06:05.383Z,14.19
2022-12-11T08:09:09.339Z,14.25
2022-12-11T08:12:13.596Z,14.08
2022-12-11T08:15:17.734Z,14.50
2022-12-11T08:18:21.793Z,13.31
2022-12-11T08:21:25.613Z,13.28
2022-12-11T08:24:29.932Z,12.40
2022-12-11T08:27:34.027Z,11.84
2022-12-11T08:30:38.015Z,10.78
2022-12-11T08:33:41.873Z,10.01
2022-12-11T08:36:45.802Z,9.81
2022-12-11T08:39:49.851Z,9.17
2022-12-11T08:42:54.020Z,9.35
2022-12-11T08:45:58.114Z,8.80
2022-12-11T08:49:02.121Z,8.84
2022-12-11T08:52:06.256Z,8.77
2022-12-11T08:55:10.649Z,8.44
2022-12-11T08:58:14.502Z,8.09
2022-12-11T09:01:18.281Z,8.67
2022-12-11T09:04:22.153Z,8.61
2022-12-11T09:07:26.143Z,8.95
2022-12-11T09:10:30.127Z,8.97
2022-12-11T09:13:34.200Z,8.97
2022-12-11T09:16:38.263Z,8.91
2022-12-11T09:19:42.115Z,8.82
2022-12-11T09:22:46.146Z,9.32
2022-12-11T09:25:50.190Z,8.80
2022-12-11T09:28:54.276Z,8.86
2022-12-11T09:31:58.130Z,8.97
2022-12-11T09:35:02.064Z,8.25
2022-12-11T09:38:06.148Z,8.28
2022-12-11T09:41:10.024Z,8.71
2022-12-11T09:44:13.992Z,9.06
2022-12-11T09:47:18.097Z,8.54
2022-12-11T09:50:22.329Z,8.79
2022-12-11T09:53:29.691Z,8.63
2022-12-11T09:56:36.403Z,8.99
2022-12-11T09:59:40.355Z,9.00
2022-12-11T10:02:44.378Z,9.15
2022-12-11T10:05:48.246Z,9.60
2022-12-11T10:08:52.222Z,9.46
2022-12-11T10:11:57.107Z,10.35
2022-12-11T10:15:00.884Z,10.74
2022-12-11T10:18:05.416Z,10.09
2022-12-11T10:21:09.162Z,10.17
2022-12-11T10:24:24.259Z,9.91
2022-12-11T10:27:37.116Z,9.92
2022-12-11T10:30:41.156Z,11.01
2022-12-11T10:33:45.083Z,10.50
2022-12-11T10:36:49.226Z,9.88
2022-12-11T10:39:53.499Z,10.02
2022-12-11T10:42:57.301Z,9.77
2022-12-11T10:46:01.181Z,8.87
2022-12-11T10:49:05.375Z,8.77
2022-12-11T10:52:09.479Z,9.11
2022-12-11T10:55:13.851Z,9.77
2022-12-11T10:58:17.706Z,10.43
2022-12-11T11:01:21.907Z,9.86
2022-12-11T11:04:26.031Z,9.36
2022-12-11T11:07:29.988Z,8.94
2022-12-11T11:10:34.021Z,8.86
2022-12-11T11:13:38.193Z,8.66
2022-12-11T11:16:42.029Z,8.84
2022-12-11T11:19:46.041Z,8.88
2022-12-11T11:22:50.042Z,9.03
2022-12-11T11:25:54.204Z,9.39
2022-12-11T11:28:58.362Z,9.57
2022-12-11T11:32:02.412Z,9.85
2022-12-11T11:35:06.428Z,9.87
2022-12-11T11:38:10.802Z,10.86
2022-12-11T11:41:15.377Z,12.16
2022-12-11T11:44:20.824Z,12.70
2022-12-11T11:47:24.862Z,13.35
2022-12-11T11:50:28.760Z,11.61
2022-12-11T11:53:34.020Z,10.53
2022-12-11T11:56:38.160Z,9.66
2022-12-11T11:59:42.091Z,10.28
2022-12-11T12:02:46.120Z,10.01
2022-12-11T12:05:50.223Z,10.81
2022-12-11T12:08:54.386Z,9.64
2022-12-11T12:11:58.340Z,10.91
2022-12-11T12:15:02.319Z,9.11
2022-12-11T12:18:06.443Z,9.58
2022-12-11T12:21:10.424Z,10.25
2022-12-11T12:24:14.403Z,8.72
2022-12-11T12:27:50.397Z,8.45
2022-12-11T12:30:42.119Z,9.33
2022-12-11T12:33:46.070Z,9.50
2022-12-11T12:36:49.960Z,9.98
2022-12-11T12:39:54.069Z,10.00
2022-12-11T12:42:58.037Z,10.26
2022-12-11T12:46:01.719Z,9.20
2022-12-11T12:49:05.707Z,9.08
2022-12-11T12:52:10.107Z,9.19
2022-12-11T12:55:14.427Z,9.79
2022-12-11T12:58:18.381Z,10.71
2022-12-11T13:01:22.171Z,10.79
2022-12-11T13:04:47.462Z,12.01
2022-12-11T13:07:54.283Z,12.61
2022-12-11T13:10:58.477Z,13.01
2022-12-11T13:14:02.120Z,12.67
2022-12-11T13:17:06.297Z,12.97
2022-12-11T13:20:10.240Z,12.62
2022-12-11T13:23:14.086Z,12.69
2022-12-11T13:26:18.122Z,12.51
2022-12-11T13:29:22.028Z,13.18
2022-12-11T13:32:25.473Z,13.20
2022-12-11T13:35:29.507Z,13.43
2022-12-11T13:38:33.743Z,12.99
2022-12-11T13:41:38.017Z,12.80
2022-12-11T13:44:42.161Z,12.42
2022-12-11T13:47:46.098Z,12.74
2022-12-11T13:50:50.093Z,13.30
2022-12-11T13:53:53.994Z,11.44
2022-12-11T13:56:58.310Z,12.61
2022-12-11T14:00:02.172Z,12.40
2022-12-11T14:03:05.982Z,13.06
2022-12-11T14:06:13.332Z,13.52
2022-12-11T14:09:22.095Z,13.12
2022-12-11T14:12:26.186Z,12.56
2022-12-11T14:15:30.260Z,13.49
2022-12-11T14:18:34.433Z,13.31
2022-12-11T14:21:38.489Z,14.14
2022-12-11T14:24:42.480Z,14.02
2022-12-11T14:27:47.713Z,14.34
2022-12-11T14:30:51.818Z,13.59
2022-12-11T14:33:56.056Z,14.30
2022-12-11T14:37:00.415Z,17.38
2022-12-11T14:40:04.255Z,14.53
2022-12-11T14:43:08.307Z,14.34
2022-12-11T14:46:12.756Z,15.32
2022-12-11T14:49:17.044Z,14.94
2022-12-11T14:52:21.096Z,15.45
2022-12-11T14:55:25.172Z,14.82
2022-12-11T14:58:29.273Z,15.37
2022-12-11T15:01:34.336Z,15.37
2022-12-11T15:04:38.506Z,15.92
2022-12-11T15:07:42.610Z,15.42
2022-12-11T15:10:49.574Z,16.16
2022-12-11T15:13:56.509Z,15.85
2022-12-11T15:17:00.715Z,17.04
2022-12-11T15:20:06.835Z,16.49
2022-12-11T15:23:15.498Z,16.07
2022-12-11T15:26:22.649Z,16.31
2022-12-11T15:29:27.695Z,15.92
2022-12-11T15:32:34.142Z,16.38
2022-12-11T15:35:38.053Z,15.97
2022-12-11T15:38:41.854Z,16.64
2022-12-11T15:41:45.577Z,16.51
2022-12-11T15:44:49.522Z,16.93
2022-12-11T15:47:53.975Z,16.54
2022-12-11T15:50:57.709Z,16.74
2022-12-11T15:54:01.820Z,17.02
2022-12-11T15:57:06.140Z,16.95
2022-12-11T16:00:13.029Z,17.23
2022-12-11T16:03:16.988Z,17.00
2022-12-11T16:06:21.292Z,17.05
2022-12-11T16:09:25.276Z,16.82
2022-12-11T16:12:29.342Z,18.28
2022-12-11T16:15:33.528Z,18.26
2022-12-11T16:18:37.764Z,17.87
2022-12-11T16:21:41.848Z,17.91
2022-12-11T16:24:45.751Z,18.52
2022-12-11T16:27:49.799Z,17.75
2022-12-11T16:30:53.889Z,18.53
2022-12-11T16:33:57.893Z,18.26
2022-12-11T16:37:02.806Z,18.35
2022-12-11T16:40:06.532Z,18.74
2022-12-11T16:43:10.641Z,18.25
2022-12-11T16:46:15.066Z,17.90
2022-12-11T16:49:19.160Z,16.83
2022-12-11T16:52:23.080Z,16.57
2022-12-11T16:55:27.121Z,16.33
2022-12-11T16:58:31.056Z,15.52
2022-12-11T17:01:35.132Z,15.44
2022-12-11T17:04:39.087Z,15.35
2022-12-11T17:07:42.878Z,15.84
2022-12-11T17:10:46.813Z,16.70
2022-12-11T17:13:51.069Z,17.51
2022-12-11T17:16:54.999Z,18.13
2022-12-11T17:19:58.869Z,19.01
2022-12-11T17:23:02.953Z,19.13
2022-12-11T17:26:06.799Z,19.82
2022-12-11T17:29:10.895Z,19.40
2022-12-11T17:32:14.842Z,20.08
2022-12-11T17:35:18.988Z,20.54
2022-12-11T17:38:23.104Z,19.30
2022-12-11T17:41:27.311Z,19.73
2022-12-11T17:44:31.570Z,19.08
2022-12-11T17:47:35.216Z,20.70
2022-12-11T17:50:39.276Z,19.48
2022-12-11T17:53:43.548Z,18.95
2022-12-11T17:56:47.475Z,18.98
2022-12-11T17:59:51.533Z,19.54
2022-12-11T18:02:58.978Z,20.56
2022-12-11T18:06:03.182Z,20.55
2022-12-11T18:09:07.600Z,19.17
2022-12-11T18:12:13.919Z,21.07
2022-12-11T18:15:21.018Z,20.43
2022-12-11T18:18:25.340Z,22.99
2022-12-11T18:21:29.397Z,24.82
2022-12-11T18:24:32.999Z,23.07
2022-12-11T18:27:37.137Z,22.15
2022-12-11T18:30:41.164Z,22.33
2022-12-11T18:33:45.270Z,21.95
2022-12-11T18:36:53.255Z,22.89
2022-12-11T18:39:57.389Z,23.17
2022-12-11T18:43:01.478Z,22.59
2022-12-11T18:46:05.646Z,22.12
2022-12-11T18:49:09.674Z,21.92
2022-12-11T18:52:14.025Z,22.39
2022-12-11T18:55:17.907Z,23.21
2022-12-11T18:58:22.049Z,22.21
2022-12-11T19:01:26.068Z,21.83
2022-12-11T19:04:30.376Z,22.76
2022-12-11T19:07:34.379Z,23.56
2022-12-11T19:10:38.451Z,23.27
2022-12-11T19:13:42.614Z,22.88
2022-12-11T19:16:46.611Z,23.14
2022-12-11T19:19:50.880Z,23.27
2022-12-11T19:22:54.878Z,23.13
2022-12-11T19:25:58.820Z,24.48
2022-12-11T19:29:03.080Z,28.26
2022-12-11T19:32:07.406Z,26.85
2022-12-11T19:35:11.782Z,25.62
2022-12-11T19:38:15.824Z,26.08
2022-12-11T19:41:19.490Z,25.30
2022-12-11T19:44:23.350Z,24.78
2022-12-11T19:47:27.512Z,24.51
2022-12-11T19:50:31.655Z,23.11
2022-12-11T19:53:35.262Z,23.55
2022-12-11T19:56:39.200Z,22.58
2022-12-11T19:59:43.361Z,23.09
2022-12-11T20:02:47.678Z,22.79
2022-12-11T20:05:51.729Z,22.95
2022-12-11T20:08:55.559Z,23.14
2022-12-11T20:11:59.661Z,24.35
2022-12-11T20:15:03.752Z,23.86
2022-12-11T20:18:07.679Z,23.51
2022-12-11T20:21:11.542Z,24.37
2022-12-11T20:24:16.468Z,24.29
2022-12-11T20:27:20.498Z,24.11
2022-12-11T20:30:24.403Z,24.42
2022-12-11T20:33:28.508Z,26.17
2022-12-11T20:36:32.644Z,28.20
2022-12-11T20:39:36.881Z,25.96
2022-12-11T20:42:41.411Z,25.35
2022-12-11T20:45:45.676Z,25.10
2022-12-11T20:48:49.759Z,25.24
2022-12-11T20:51:53.633Z,24.99
2022-12-11T20:54:57.455Z,25.23
2022-12-11T20:58:01.664Z,23.59
2022-12-11T21:01:05.970Z,24.14
2022-12-11T21:04:09.951Z,23.97
2022-12-11T21:07:16.062Z,24.54
2022-12-11T21:10:20.223Z,24.20
2022-12-11T21:13:24.459Z,24.00
2022-12-11T21:16:28.706Z,23.83
2022-12-11T21:19:32.395Z,24.31
2022-12-11T21:22:36.506Z,26.58
2022-12-11T21:25:40.713Z,27.89
2022-12-11T21:28:44.754Z,29.95
2022-12-11T21:31:48.594Z,29.16
2022-12-11T21:34:52.502Z,30.40
2022-12-11T21:37:56.821Z,35.30
2022-12-11T21:41:01.090Z,34.55
2022-12-11T21:47:28.599Z,32.96
2022-12-11T21:50:32.696Z,34.61
2022-12-11T21:53:36.770Z,32.88
2022-12-11T21:56:40.943Z,31.74
2022-12-11T21:59:45.119Z,29.09
2022-12-11T22:02:49.417Z,29.87
2022-12-11T22:05:53.129Z,27.74
2022-12-11T22:08:56.957Z,25.76
2022-12-11T22:12:01.033Z,24.39
2022-12-11T22:15:05.259Z,23.67
2022-12-11T22:18:09.143Z,23.43
2022-12-11T22:21:13.131Z,21.88
2022-12-11T22:24:17.066Z,21.16
2022-12-11T22:27:23.913Z,22.00
2022-12-11T22:30:28.342Z,20.49
2022-12-11T22:33:32.300Z,20.78
2022-12-11T22:36:36.098Z,21.53
2022-12-11T22:39:40.034Z,21.45
2022-12-11T22:42:44.271Z,21.52
2022-12-11T22:45:48.400Z,23.38
2022-12-11T22:48:52.457Z,23.77
2022-12-11T22:51:56.171Z,23.12
2022-12-11T22:55:00.086Z,22.79
2022-12-11T22:58:04.455Z,22.94
2022-12-11T23:01:08.620Z,23.00
2022-12-11T23:04:12.325Z,23.59
2022-12-11T23:07:16.067Z,24.22
2022-12-11T23:10:19.744Z,24.50
2022-12-11T23:13:23.848Z,23.40
2022-12-11T23:16:27.821Z,22.11
2022-12-11T23:19:31.711Z,22.38
2022-12-11T23:22:36.052Z,22.38
2022-12-11T23:25:40.564Z,21.20
2022-12-11T23:28:44.570Z,17.33
2022-12-11T23:31:48.435Z,18.64
2022-12-11T23:34:52.132Z,16.08
2022-12-11T23:37:56.212Z,15.47
2022-12-11T23:41:00.446Z,17.39
2022-12-11T23:44:04.605Z,22.34
2022-12-11T23:47:08.412Z,21.50
2022-12-11T23:50:12.615Z,21.10
2022-12-11T23:53:16.519Z,21.74
2022-12-11T23:56:20.478Z,21.24
2022-12-11T23:59:24.496Z,21.64
